sensor_id;sensor_type;location;lat;lon;timestamp;pressure;altitude;pressure_sealevel;temperature;humidity
62703;BME280;66022;50.448;18.122;2023-05-19T00:00:15;100176.06;;;9.86;84.46
62703;BME280;66022;50.448;18.122;2023-05-19T00:04:27;100173.46;;;9.81;83.92
62703;BME280;66022;50.448;18.122;2023-05-19T00:08:39;100170.89;;;9.73;84.29
62703;BME280;66022;50.448;18.122;2023-05-19T00:12:51;100168.56;;;9.69;83.98
62703;BME280;66022;50.448;18.122;2023-05-19T00:17:03;100166.25;;;9.63;85.91
62703;BME280;66022;50.448;18.122;2023-05-19T00:21:15;100162.73;;;9.60;83.61
62703;BME280;66022;50.448;18.122;2023-05-19T00:25:27;100159.06;;;9.56;83.25
62703;BME280;66022;50.448;18.122;2023-05-19T00:29:39;100156.14;;;9.52;83.99
62703;BME280;66022;50.448;18.122;2023-05-19T00:33:51;100153.13;;;9.49;83.21
62703;BME280;66022;50.448;18.122;2023-05-19T00:38:03;100150.52;;;9.45;83.62
62703;BME280;66022;50.448;18.122;2023-05-19T00:42:15;100148.71;;;9.44;82.97
62703;BME280;66022;50.448;18.122;2023-05-19T00:46:27;100146.44;;;9.41;84.99
62703;BME280;66022;50.448;18.122;2023-05-19T00:50:39;100144.67;;;9.40;84.34
62703;BME280;66022;50.448;18.122;2023-05-19T00:54:51;100142.50;;;9.38;84.17
62703;BME280;66022;50.448;18.122;2023-05-19T00:59:03;100139.17;;;9.33;84.23
62703;BME280;66022;50.448;18.122;2023-05-19T01:03:15;100136.91;;;9.32;83.57
62703;BME280;66022;50.448;18.122;2023-05-19T01:07:27;100134.22;;;9.29;85.84
62703;BME280;66022;50.448;18.122;2023-05-19T01:11:39;100133.15;;;9.27;83.76
62703;BME280;66022;50.448;18.122;2023-05-19T01:15:59;100132.39;;;9.27;84.02
62703;BME280;66022;50.448;18.122;2023-05-19T01:32:40;100131.07;;;9.22;83.39
62703;BME280;66022;50.448;18.122;2023-05-19T01:36:51;100130.33;;;9.18;87.52
62703;BME280;66022;50.448;18.122;2023-05-19T01:41:03;100129.05;;;9.17;84.17
62703;BME280;66022;50.448;18.122;2023-05-19T01:45:15;100128.49;;;9.16;84.01
62703;BME280;66022;50.448;18.122;2023-05-19T01:49:27;100126.39;;;9.13;85.95
62703;BME280;66022;50.448;18.122;2023-05-19T01:53:39;100124.22;;;9.12;84.83
62703;BME280;66022;50.448;18.122;2023-05-19T02:02:06;100118.92;;;9.11;85.38
62703;BME280;66022;50.448;18.122;2023-05-19T02:10:27;100112.13;;;9.10;85.52
62703;BME280;66022;50.448;18.122;2023-05-19T02:18:51;100102.69;;;9.07;86.92
62703;BME280;66022;50.448;18.122;2023-05-19T02:23:03;100099.17;;;9.07;86.66
62703;BME280;66022;50.448;18.122;2023-05-19T02:27:15;100096.91;;;9.05;90.16
62703;BME280;66022;50.448;18.122;2023-05-19T02:31:27;100095.23;;;9.05;86.84
62703;BME280;66022;50.448;18.122;2023-05-19T02:35:39;100094.56;;;9.03;87.20
62703;BME280;66022;50.448;18.122;2023-05-19T02:39:51;100092.95;;;9.02;87.68
62703;BME280;66022;50.448;18.122;2023-05-19T02:44:03;100091.20;;;9.00;87.11
62703;BME280;66022;50.448;18.122;2023-05-19T02:48:15;100090.70;;;8.98;88.67
62703;BME280;66022;50.448;18.122;2023-05-19T02:52:27;100090.73;;;8.97;87.85
62703;BME280;66022;50.448;18.122;2023-05-19T02:56:39;100091.16;;;8.93;93.05
62703;BME280;66022;50.448;18.122;2023-05-19T03:00:51;100091.55;;;8.93;89.87
62703;BME280;66022;50.448;18.122;2023-05-19T03:05:03;100091.41;;;8.90;90.49
62703;BME280;66022;50.448;18.122;2023-05-19T03:09:15;100091.49;;;8.86;90.24
62703;BME280;66022;50.448;18.122;2023-05-19T03:13:27;100092.00;;;8.83;90.69
62703;BME280;66022;50.448;18.122;2023-05-19T03:17:39;100091.75;;;8.79;92.60
62703;BME280;66022;50.448;18.122;2023-05-19T03:21:51;100092.77;;;8.77;91.82
62703;BME280;66022;50.448;18.122;2023-05-19T03:26:03;100092.60;;;8.74;92.48
62703;BME280;66022;50.448;18.122;2023-05-19T03:30:15;100092.77;;;8.72;93.23
62703;BME280;66022;50.448;18.122;2023-05-19T03:34:27;100092.19;;;8.69;93.60
62703;BME280;66022;50.448;18.122;2023-05-19T03:38:39;100091.60;;;8.66;94.10
62703;BME280;66022;50.448;18.122;2023-05-19T03:42:51;100091.78;;;8.65;93.57
62703;BME280;66022;50.448;18.122;2023-05-19T03:47:03;100093.78;;;8.62;98.83
62703;BME280;66022;50.448;18.122;2023-05-19T03:51:15;100095.22;;;8.62;94.29
62703;BME280;66022;50.448;18.122;2023-05-19T03:55:27;100095.62;;;8.61;95.07
62703;BME280;66022;50.448;18.122;2023-05-19T03:59:39;100096.30;;;8.61;95.78
62703;BME280;66022;50.448;18.122;2023-05-19T04:03:51;100097.45;;;8.61;94.60
62703;BME280;66022;50.448;18.122;2023-05-19T04:08:03;100097.91;;;8.62;97.17
62703;BME280;66022;50.448;18.122;2023-05-19T04:12:15;100097.71;;;8.63;95.00
62703;BME280;66022;50.448;18.122;2023-05-19T04:16:27;100098.64;;;8.63;99.96
62703;BME280;66022;50.448;18.122;2023-05-19T04:20:39;100098.72;;;8.65;96.15
62703;BME280;66022;50.448;18.122;2023-05-19T04:24:51;100099.90;;;8.66;95.56
62703;BME280;66022;50.448;18.122;2023-05-19T04:29:03;100100.23;;;8.68;97.03
62703;BME280;66022;50.448;18.122;2023-05-19T04:33:15;100100.58;;;8.71;96.95
62703;BME280;66022;50.448;18.122;2023-05-19T04:37:27;100101.47;;;8.73;99.49
62703;BME280;66022;50.448;18.122;2023-05-19T04:41:39;100103.73;;;8.78;95.27
62703;BME280;66022;50.448;18.122;2023-05-19T04:45:51;100106.41;;;8.83;95.00
62703;BME280;66022;50.448;18.122;2023-05-19T04:50:03;100107.74;;;8.89;96.10
62703;BME280;66022;50.448;18.122;2023-05-19T04:54:15;100108.00;;;8.95;94.31
62703;BME280;66022;50.448;18.122;2023-05-19T04:58:27;100107.23;;;9.01;96.29
62703;BME280;66022;50.448;18.122;2023-05-19T05:02:39;100107.04;;;9.09;95.15
62703;BME280;66022;50.448;18.122;2023-05-19T05:06:51;100108.03;;;9.14;100.00
62703;BME280;66022;50.448;18.122;2023-05-19T05:11:03;100107.42;;;9.23;94.25
62703;BME280;66022;50.448;18.122;2023-05-19T05:15:15;100106.62;;;9.32;93.61
62703;BME280;66022;50.448;18.122;2023-05-19T05:19:27;100106.02;;;9.41;93.26
62703;BME280;66022;50.448;18.122;2023-05-19T05:23:39;100105.70;;;9.51;93.96
62703;BME280;66022;50.448;18.122;2023-05-19T05:27:51;100106.03;;;9.59;94.93
62703;BME280;66022;50.448;18.122;2023-05-19T05:32:03;100106.99;;;9.67;93.32
62703;BME280;66022;50.448;18.122;2023-05-19T05:36:15;100108.63;;;9.73;93.66
62703;BME280;66022;50.448;18.122;2023-05-19T05:40:27;100109.01;;;9.79;93.14
62703;BME280;66022;50.448;18.122;2023-05-19T05:44:39;100109.16;;;9.84;93.29
62703;BME280;66022;50.448;18.122;2023-05-19T05:48:51;100108.97;;;9.87;94.49
62703;BME280;66022;50.448;18.122;2023-05-19T05:53:03;100109.87;;;9.92;92.47
62703;BME280;66022;50.448;18.122;2023-05-19T05:57:15;100112.55;;;9.97;97.14
62703;BME280;66022;50.448;18.122;2023-05-19T06:01:27;100115.44;;;10.02;93.18
62703;BME280;66022;50.448;18.122;2023-05-19T06:05:39;100117.33;;;10.07;93.34
62703;BME280;66022;50.448;18.122;2023-05-19T06:09:51;100118.41;;;10.11;93.01
62703;BME280;66022;50.448;18.122;2023-05-19T06:14:03;100122.99;;;10.16;93.11
62703;BME280;66022;50.448;18.122;2023-05-19T06:18:15;100129.10;;;10.19;93.95
62703;BME280;66022;50.448;18.122;2023-05-19T06:22:27;100132.59;;;10.24;92.70
62703;BME280;66022;50.448;18.122;2023-05-19T06:26:39;100135.77;;;10.26;97.75
62703;BME280;66022;50.448;18.122;2023-05-19T06:30:51;100138.30;;;10.31;91.60
62703;BME280;66022;50.448;18.122;2023-05-19T06:35:04;100140.92;;;10.36;93.47
62703;BME280;66022;50.448;18.122;2023-05-19T06:39:15;100142.41;;;10.39;91.91
62703;BME280;66022;50.448;18.122;2023-05-19T06:43:27;100144.39;;;10.46;91.73
62703;BME280;66022;50.448;18.122;2023-05-19T06:47:39;100145.86;;;10.52;93.72
62703;BME280;66022;50.448;18.122;2023-05-19T06:51:51;100146.15;;;10.57;92.43
62703;BME280;66022;50.448;18.122;2023-05-19T06:56:03;100147.19;;;10.63;90.98
62703;BME280;66022;50.448;18.122;2023-05-19T07:00:15;100147.91;;;10.70;91.25
62703;BME280;66022;50.448;18.122;2023-05-19T07:04:27;100148.77;;;10.77;90.04
62703;BME280;66022;50.448;18.122;2023-05-19T07:08:39;100148.30;;;10.80;91.64
62703;BME280;66022;50.448;18.122;2023-05-19T07:12:51;100148.16;;;10.86;91.34
62703;BME280;66022;50.448;18.122;2023-05-19T07:17:03;100147.56;;;10.88;94.55
62703;BME280;66022;50.448;18.122;2023-05-19T07:21:15;100145.95;;;10.93;90.63
62703;BME280;66022;50.448;18.122;2023-05-19T07:25:27;100144.22;;;10.97;90.30
62703;BME280;66022;50.448;18.122;2023-05-19T07:29:39;100141.74;;;10.99;91.21
62703;BME280;66022;50.448;18.122;2023-05-19T07:33:51;100139.18;;;11.03;91.13
62703;BME280;66022;50.448;18.122;2023-05-19T07:38:03;100137.22;;;11.06;91.20
62703;BME280;66022;50.448;18.122;2023-05-19T07:42:15;100137.66;;;11.13;89.93
62703;BME280;66022;50.448;18.122;2023-05-19T07:46:27;100137.79;;;11.17;93.03
62703;BME280;66022;50.448;18.122;2023-05-19T07:50:39;100138.71;;;11.24;89.03
62703;BME280;66022;50.448;18.122;2023-05-19T07:54:51;100139.23;;;11.31;89.10
62703;BME280;66022;50.448;18.122;2023-05-19T07:59:03;100139.35;;;11.35;89.77
62703;BME280;66022;50.448;18.122;2023-05-19T08:03:15;100139.03;;;11.42;88.82
62703;BME280;66022;50.448;18.122;2023-05-19T08:07:27;100139.70;;;11.48;91.42
62703;BME280;66022;50.448;18.122;2023-05-19T08:11:39;100140.62;;;11.57;89.12
62703;BME280;66022;50.448;18.122;2023-05-19T08:15:51;100141.47;;;11.63;88.93
62703;BME280;66022;50.448;18.122;2023-05-19T08:20:04;100142.00;;;11.68;88.16
62703;BME280;66022;50.448;18.122;2023-05-19T08:24:15;100142.17;;;11.74;88.48
62703;BME280;66022;50.448;18.122;2023-05-19T08:28:28;100141.44;;;11.78;89.21
62703;BME280;66022;50.448;18.122;2023-05-19T08:32:39;100141.02;;;11.85;87.87
62703;BME280;66022;50.448;18.122;2023-05-19T08:36:51;100141.23;;;11.91;92.06
62703;BME280;66022;50.448;18.122;2023-05-19T08:41:03;100140.67;;;12.00;87.63
62703;BME280;66022;50.448;18.122;2023-05-19T08:45:15;100140.39;;;12.09;86.66
62703;BME280;66022;50.448;18.122;2023-05-19T08:49:27;100140.88;;;12.17;86.68
62703;BME280;66022;50.448;18.122;2023-05-19T08:53:39;100142.33;;;12.25;86.17
62703;BME280;66022;50.448;18.122;2023-05-19T08:57:51;100143.24;;;12.34;86.43
62703;BME280;66022;50.448;18.122;2023-05-19T09:02:03;100143.92;;;12.42;86.32
62703;BME280;66022;50.448;18.122;2023-05-19T09:06:15;100143.64;;;12.50;85.80
62703;BME280;66022;50.448;18.122;2023-05-19T09:10:27;100144.19;;;12.57;84.92
62703;BME280;66022;50.448;18.122;2023-05-19T09:14:39;100145.00;;;12.66;85.30
62703;BME280;66022;50.448;18.122;2023-05-19T09:18:55;100145.17;;;12.70;84.68
62703;BME280;66022;50.448;18.122;2023-05-19T09:23:03;100145.89;;;12.78;83.92
62703;BME280;66022;50.448;18.122;2023-05-19T09:27:20;100146.64;;;12.84;85.75
62703;BME280;66022;50.448;18.122;2023-05-19T09:31:30;100146.86;;;12.89;84.54
62703;BME280;66022;50.448;18.122;2023-05-19T09:35:39;100147.25;;;12.91;83.95
62703;BME280;66022;50.448;18.122;2023-05-19T09:39:51;100147.33;;;12.92;84.48
62703;BME280;66022;50.448;18.122;2023-05-19T09:44:04;100145.92;;;12.96;83.89
62703;BME280;66022;50.448;18.122;2023-05-19T09:48:15;100144.42;;;13.00;84.75
62703;BME280;66022;50.448;18.122;2023-05-19T09:52:28;100143.06;;;13.04;83.47
62703;BME280;66022;50.448;18.122;2023-05-19T09:56:40;100142.99;;;13.05;86.39
62703;BME280;66022;50.448;18.122;2023-05-19T10:00:52;100142.97;;;13.09;83.76
62703;BME280;66022;50.448;18.122;2023-05-19T10:05:04;100142.03;;;13.15;83.50
62703;BME280;66022;50.448;18.122;2023-05-19T10:09:16;100140.33;;;13.19;83.70
62703;BME280;66022;50.448;18.122;2023-05-19T10:13:28;100137.88;;;13.24;83.27
62703;BME280;66022;50.448;18.122;2023-05-19T10:17:40;100134.75;;;13.26;83.69
62703;BME280;66022;50.448;18.122;2023-05-19T10:21:52;100131.38;;;13.28;83.07
62703;BME280;66022;50.448;18.122;2023-05-19T10:26:04;100128.23;;;13.33;82.51
62703;BME280;66022;50.448;18.122;2023-05-19T10:34:35;100121.59;;;13.48;82.81
62703;BME280;66022;50.448;18.122;2023-05-19T10:47:06;100114.51;;;13.72;83.69
62703;BME280;66022;50.448;18.122;2023-05-19T10:51:16;100112.74;;;13.79;82.02
62703;BME280;66022;50.448;18.122;2023-05-19T10:59:40;100113.24;;;13.84;82.80
62703;BME280;66022;50.448;18.122;2023-05-19T11:03:52;100113.65;;;13.84;83.07
62703;BME280;66022;50.448;18.122;2023-05-19T11:08:05;100114.04;;;13.85;82.51
62703;BME280;66022;50.448;18.122;2023-05-19T11:12:19;100113.92;;;13.87;82.11
62703;BME280;66022;50.448;18.122;2023-05-19T11:16:28;100114.15;;;13.85;83.39
62703;BME280;66022;50.448;18.122;2023-05-19T11:20:40;100114.34;;;13.87;82.51
62703;BME280;66022;50.448;18.122;2023-05-19T11:24:55;100114.45;;;13.90;82.95
62703;BME280;66022;50.448;18.122;2023-05-19T11:29:04;100115.25;;;13.92;81.97
62703;BME280;66022;50.448;18.122;2023-05-19T11:33:16;100116.11;;;13.98;81.65
62703;BME280;66022;50.448;18.122;2023-05-19T11:37:29;100116.76;;;14.04;83.35
62703;BME280;66022;50.448;18.122;2023-05-19T11:41:40;100117.52;;;14.11;81.09
62703;BME280;66022;50.448;18.122;2023-05-19T11:45:52;100117.99;;;14.16;82.39
62703;BME280;66022;50.448;18.122;2023-05-19T11:50:04;100117.95;;;14.19;80.86
62703;BME280;66022;50.448;18.122;2023-05-19T11:54:16;100117.26;;;14.22;80.61
62703;BME280;66022;50.448;18.122;2023-05-19T11:58:28;100116.63;;;14.24;81.20
62703;BME280;66022;50.448;18.122;2023-05-19T12:02:40;100115.86;;;14.29;80.95
62703;BME280;66022;50.448;18.122;2023-05-19T12:06:52;100116.27;;;14.29;82.67
62703;BME280;66022;50.448;18.122;2023-05-19T12:11:04;100114.64;;;14.33;81.45
62703;BME280;66022;50.448;18.122;2023-05-19T12:15:19;100113.16;;;14.39;81.05
62703;BME280;66022;50.448;18.122;2023-05-19T12:19:28;100110.97;;;14.45;81.35
62703;BME280;66022;50.448;18.122;2023-05-19T12:23:40;100108.73;;;14.54;79.85
62703;BME280;66022;50.448;18.122;2023-05-19T12:27:55;100105.84;;;14.62;80.42
62703;BME280;66022;50.448;18.122;2023-05-19T12:32:04;100104.17;;;14.68;79.40
62703;BME280;66022;50.448;18.122;2023-05-19T12:36:16;100102.22;;;14.72;80.91
62703;BME280;66022;50.448;18.122;2023-05-19T12:40:31;100100.06;;;14.77;80.52
62703;BME280;66022;50.448;18.122;2023-05-19T12:48:52;100094.23;;;14.83;80.74
62703;BME280;66022;50.448;18.122;2023-05-19T12:53:06;100091.33;;;14.87;79.45
62703;BME280;66022;50.448;18.122;2023-05-19T12:57:16;100090.25;;;14.90;79.95
62703;BME280;66022;50.448;18.122;2023-05-19T13:01:28;100088.73;;;14.93;79.96
62703;BME280;66022;50.448;18.122;2023-05-19T13:05:40;100087.68;;;14.94;80.16
62703;BME280;66022;50.448;18.122;2023-05-19T13:09:52;100086.32;;;14.94;80.74
62703;BME280;66022;50.448;18.122;2023-05-19T13:14:04;100084.08;;;14.95;80.25
62703;BME280;66022;50.448;18.122;2023-05-19T13:18:16;100081.81;;;14.99;81.09
62703;BME280;66022;50.448;18.122;2023-05-19T13:22:28;100080.74;;;15.04;79.73
62703;BME280;66022;50.448;18.122;2023-05-19T13:26:40;100079.91;;;15.03;81.06
62703;BME280;66022;50.448;18.122;2023-05-19T13:30:52;100078.53;;;15.07;79.84
62703;BME280;66022;50.448;18.122;2023-05-19T13:35:04;100077.96;;;15.09;79.67
62703;BME280;66022;50.448;18.122;2023-05-19T13:39:16;100076.78;;;15.09;79.61
62703;BME280;66022;50.448;18.122;2023-05-19T13:43:31;100075.81;;;15.11;79.99
62703;BME280;66022;50.448;18.122;2023-05-19T13:47:40;100074.56;;;15.13;79.63
62703;BME280;66022;50.448;18.122;2023-05-19T13:51:54;100074.10;;;15.17;80.06
62703;BME280;66022;50.448;18.122;2023-05-19T13:56:04;100074.27;;;15.20;80.02
62703;BME280;66022;50.448;18.122;2023-05-19T14:00:19;100074.16;;;15.21;80.48
62703;BME280;66022;50.448;18.122;2023-05-19T14:04:28;100074.41;;;15.22;80.00
62703;BME280;66022;50.448;18.122;2023-05-19T14:08:40;100073.92;;;15.20;80.79
62703;BME280;66022;50.448;18.122;2023-05-19T14:12:52;100074.08;;;15.21;79.75
62703;BME280;66022;50.448;18.122;2023-05-19T14:17:04;100073.69;;;15.17;81.63
62703;BME280;66022;50.448;18.122;2023-05-19T14:21:16;100074.33;;;15.15;80.23
62703;BME280;66022;50.448;18.122;2023-05-19T14:25:28;100075.03;;;15.15;80.48
62703;BME280;66022;50.448;18.122;2023-05-19T14:29:40;100074.78;;;15.14;80.03
62703;BME280;66022;50.448;18.122;2023-05-19T14:33:52;100074.01;;;15.14;79.80
62703;BME280;66022;50.448;18.122;2023-05-19T14:38:04;100073.85;;;15.15;80.35
62703;BME280;66022;50.448;18.122;2023-05-19T14:42:16;100074.38;;;15.16;80.42
62703;BME280;66022;50.448;18.122;2023-05-19T14:46:28;100073.67;;;15.14;81.01
62703;BME280;66022;50.448;18.122;2023-05-19T14:50:40;100073.33;;;15.14;79.80
62703;BME280;66022;50.448;18.122;2023-05-19T14:54:52;100075.69;;;15.15;80.60
62703;BME280;66022;50.448;18.122;2023-05-19T14:59:04;100077.70;;;15.13;80.51
62703;BME280;66022;50.448;18.122;2023-05-19T15:03:16;100079.13;;;15.13;80.43
62703;BME280;66022;50.448;18.122;2023-05-19T15:07:28;100079.21;;;15.10;81.71
62703;BME280;66022;50.448;18.122;2023-05-19T15:11:40;100079.17;;;15.08;80.91
62703;BME280;66022;50.448;18.122;2023-05-19T15:15:52;100080.99;;;15.06;81.05
62703;BME280;66022;50.448;18.122;2023-05-19T15:20:05;100080.47;;;15.04;81.21
62703;BME280;66022;50.448;18.122;2023-05-19T15:24:16;100080.24;;;15.03;81.11
62703;BME280;66022;50.448;18.122;2023-05-19T15:28:28;100080.17;;;14.99;81.93
62703;BME280;66022;50.448;18.122;2023-05-19T16:27:26;100070.64;;;14.80;83.73
62703;BME280;66022;50.448;18.122;2023-05-19T16:31:39;100071.52;;;14.78;82.69
62703;BME280;66022;50.448;18.122;2023-05-19T16:35:51;100071.92;;;14.76;82.99
62703;BME280;66022;50.448;18.122;2023-05-19T16:40:03;100072.83;;;14.73;83.66
62703;BME280;66022;50.448;18.122;2023-05-19T16:44:15;100073.33;;;14.70;83.83
62703;BME280;66022;50.448;18.122;2023-05-19T16:48:27;100072.24;;;14.64;85.66
62703;BME280;66022;50.448;18.122;2023-05-19T16:52:39;100071.36;;;14.61;84.71
62703;BME280;66022;50.448;18.122;2023-05-19T16:56:51;100071.51;;;14.55;88.03
62703;BME280;66022;50.448;18.122;2023-05-19T17:01:03;100072.16;;;14.53;84.80
62703;BME280;66022;50.448;18.122;2023-05-19T17:05:15;100073.39;;;14.51;85.00
62703;BME280;66022;50.448;18.122;2023-05-19T17:09:27;100074.33;;;14.47;85.18
62703;BME280;66022;50.448;18.122;2023-05-19T17:13:39;100075.80;;;14.45;86.12
62703;BME280;66022;50.448;18.122;2023-05-19T17:17:51;100076.40;;;14.41;86.54
62703;BME280;66022;50.448;18.122;2023-05-19T17:22:03;100077.19;;;14.38;85.65
62703;BME280;66022;50.448;18.122;2023-05-19T17:26:15;100077.84;;;14.34;86.56
62703;BME280;66022;50.448;18.122;2023-05-19T17:30:27;100078.63;;;14.30;86.80
62703;BME280;66022;50.448;18.122;2023-05-19T17:34:39;100080.10;;;14.25;86.94
62703;BME280;66022;50.448;18.122;2023-05-19T17:38:51;100080.75;;;14.18;87.54
62703;BME280;66022;50.448;18.122;2023-05-19T17:43:03;100081.61;;;14.15;86.88
62703;BME280;66022;50.448;18.122;2023-05-19T17:47:15;100082.25;;;14.09;89.43
62703;BME280;66022;50.448;18.122;2023-05-19T17:51:27;100082.18;;;14.05;87.24
62703;BME280;66022;50.448;18.122;2023-05-19T17:55:39;100080.44;;;14.00;87.97
62703;BME280;66022;50.448;18.122;2023-05-19T17:59:51;100078.91;;;13.96;88.73
62703;BME280;66022;50.448;18.122;2023-05-19T18:04:03;100078.50;;;13.92;88.33
62703;BME280;66022;50.448;18.122;2023-05-19T18:08:15;100078.01;;;13.87;89.79
62703;BME280;66022;50.448;18.122;2023-05-19T18:12:27;100077.86;;;13.84;89.16
62703;BME280;66022;50.448;18.122;2023-05-19T18:16:39;100077.21;;;13.78;92.75
62703;BME280;66022;50.448;18.122;2023-05-19T18:20:51;100077.69;;;13.76;88.89
62703;BME280;66022;50.448;18.122;2023-05-19T18:25:03;100079.08;;;13.73;88.38
62703;BME280;66022;50.448;18.122;2023-05-19T18:29:15;100081.36;;;13.70;88.74
62703;BME280;66022;50.448;18.122;2023-05-19T18:33:27;100083.83;;;13.69;88.39
62703;BME280;66022;50.448;18.122;2023-05-19T18:37:39;100086.66;;;13.66;90.48
62703;BME280;66022;50.448;18.122;2023-05-19T20:15:28;100143.28;;;13.07;90.95
62703;BME280;66022;50.448;18.122;2023-05-19T20:19:40;100144.00;;;13.04;91.65
62703;BME280;66022;50.448;18.122;2023-05-19T20:23:52;100143.29;;;13.01;90.89
62703;BME280;66022;50.448;18.122;2023-05-19T20:28:04;100143.52;;;12.99;93.19
62703;BME280;66022;50.448;18.122;2023-05-19T20:32:16;100143.52;;;12.97;91.56
62703;BME280;66022;50.448;18.122;2023-05-19T20:36:28;100144.10;;;12.94;94.01
62703;BME280;66022;50.448;18.122;2023-05-19T20:40:40;100145.48;;;12.92;92.07
62703;BME280;66022;50.448;18.122;2023-05-19T20:44:52;100146.37;;;12.90;91.77
62703;BME280;66022;50.448;18.122;2023-05-19T20:49:04;100146.94;;;12.86;91.61
62703;BME280;66022;50.448;18.122;2023-05-19T20:53:17;100146.09;;;12.85;92.48
62703;BME280;66022;50.448;18.122;2023-05-19T20:57:31;100145.56;;;12.83;94.80
62703;BME280;66022;50.448;18.122;2023-05-19T21:01:40;100144.97;;;12.82;91.41
62703;BME280;66022;50.448;18.122;2023-05-19T21:05:53;100144.39;;;12.81;91.41
62703;BME280;66022;50.448;18.122;2023-05-19T21:10:05;100143.73;;;12.80;92.21
62703;BME280;66022;50.448;18.122;2023-05-19T21:14:16;100143.66;;;12.79;92.26
62703;BME280;66022;50.448;18.122;2023-05-19T21:18:28;100143.01;;;12.79;93.71
62703;BME280;66022;50.448;18.122;2023-05-19T21:22:40;100142.08;;;12.78;92.12
62703;BME280;66022;50.448;18.122;2023-05-19T21:26:52;100141.30;;;12.74;97.62
62703;BME280;66022;50.448;18.122;2023-05-19T21:31:04;100142.19;;;12.73;92.28
62703;BME280;66022;50.448;18.122;2023-05-19T21:35:16;100142.38;;;12.71;92.32
62703;BME280;66022;50.448;18.122;2023-05-19T21:39:28;100144.17;;;12.70;93.38
62703;BME280;66022;50.448;18.122;2023-05-19T21:43:40;100146.04;;;12.69;92.99
62703;BME280;66022;50.448;18.122;2023-05-19T21:47:52;100148.43;;;12.67;95.24
62703;BME280;66022;50.448;18.122;2023-05-19T21:52:05;100149.66;;;12.65;92.73
62703;BME280;66022;50.448;18.122;2023-05-19T21:56:16;100151.78;;;12.63;94.90
62703;BME280;66022;50.448;18.122;2023-05-19T22:00:28;100151.67;;;12.60;94.97
62703;BME280;66022;50.448;18.122;2023-05-19T22:04:41;100151.12;;;12.58;94.42
62703;BME280;66022;50.448;18.122;2023-05-19T22:08:52;100150.09;;;12.54;94.67
62703;BME280;66022;50.448;18.122;2023-05-19T22:13:04;100147.73;;;12.53;94.26
62703;BME280;66022;50.448;18.122;2023-05-19T22:17:16;100144.48;;;12.50;98.35
62703;BME280;66022;50.448;18.122;2023-05-19T22:21:28;100140.40;;;12.48;94.58
62703;BME280;66022;50.448;18.122;2023-05-19T22:25:40;100136.55;;;12.46;94.00
62703;BME280;66022;50.448;18.122;2023-05-19T22:29:52;100134.48;;;12.44;94.31
62703;BME280;66022;50.448;18.122;2023-05-19T22:34:04;100131.87;;;12.43;93.01
62703;BME280;66022;50.448;18.122;2023-05-19T22:38:16;100130.44;;;12.42;94.86
62703;BME280;66022;50.448;18.122;2023-05-19T22:42:28;100128.86;;;12.43;93.79
62703;BME280;66022;50.448;18.122;2023-05-19T22:46:40;100127.68;;;12.42;98.64
62703;BME280;66022;50.448;18.122;2023-05-19T22:50:52;100127.83;;;12.43;93.67
62703;BME280;66022;50.448;18.122;2023-05-19T22:55:04;100127.23;;;12.43;93.61
62703;BME280;66022;50.448;18.122;2023-05-19T22:59:16;100126.90;;;12.42;93.82
62703;BME280;66022;50.448;18.122;2023-05-19T23:03:28;100127.68;;;12.42;93.75
62703;BME280;66022;50.448;18.122;2023-05-19T23:07:40;100128.30;;;12.40;97.34
62703;BME280;66022;50.448;18.122;2023-05-19T23:11:52;100126.87;;;12.40;94.12
62703;BME280;66022;50.448;18.122;2023-05-19T23:16:04;100124.86;;;12.38;94.01
62703;BME280;66022;50.448;18.122;2023-05-19T23:20:16;100121.86;;;12.37;94.72
62703;BME280;66022;50.448;18.122;2023-05-19T23:24:28;100117.83;;;12.35;94.13
62703;BME280;66022;50.448;18.122;2023-05-19T23:28:40;100114.42;;;12.32;95.50
62703;BME280;66022;50.448;18.122;2023-05-19T23:32:52;100112.09;;;12.31;93.94
62703;BME280;66022;50.448;18.122;2023-05-19T23:37:04;100110.46;;;12.27;99.28
62703;BME280;66022;50.448;18.122;2023-05-19T23:41:16;100109.57;;;12.26;94.18
62703;BME280;66022;50.448;18.122;2023-05-19T23:45:28;100109.84;;;12.23;93.93
62703;BME280;66022;50.448;18.122;2023-05-19T23:49:40;100108.12;;;12.21;94.58
62703;BME280;66022;50.448;18.122;2023-05-19T23:53:52;100108.54;;;12.19;94.60
62703;BME280;66022;50.448;18.122;2023-05-19T23:58:04;100108.57;;;12.18;96.46
